createdAt,value
2022-11-29T00:01:39.095Z,27.30
2022-11-29T00:04:07.919Z,25.83
2022-11-29T00:06:37.495Z,24.75
2022-11-29T00:09:07.843Z,28.25
2022-11-29T00:11:56.710Z,26.65
2022-11-29T00:14:25.789Z,27.23
2022-11-29T00:16:55.904Z,28.67
2022-11-29T00:19:24.527Z,26.58
2022-11-29T00:21:52.892Z,27.45
2022-11-29T00:24:21.098Z,28.20
2022-11-29T00:26:51.046Z,25.73
2022-11-29T00:29:19.481Z,25.00
2022-11-29T00:31:47.669Z,24.00
2022-11-29T00:34:15.879Z,25.38
2022-11-29T00:36:44.238Z,24.90
2022-11-29T00:39:13.080Z,24.92
2022-11-29T00:41:41.528Z,26.55
2022-11-29T00:44:16.773Z,25.65
2022-11-29T00:46:48.265Z,24.77
2022-11-29T00:49:16.951Z,25.65
2022-11-29T00:51:45.079Z,24.33
2022-11-29T00:54:13.402Z,25.73
2022-11-29T00:56:41.845Z,22.33
2022-11-29T00:59:11.316Z,24.50
2022-11-29T01:01:39.807Z,23.08
2022-11-29T01:04:08.520Z,23.42
2022-11-29T01:06:36.720Z,22.90
2022-11-29T01:09:06.162Z,23.52
2022-11-29T01:11:34.910Z,22.52
2022-11-29T01:14:04.452Z,21.52
2022-11-29T01:16:34.382Z,22.73
2022-11-29T01:19:03.985Z,23.35
2022-11-29T01:21:32.598Z,22.85
2022-11-29T01:24:01.181Z,23.20
2022-11-29T01:26:31.298Z,22.35
2022-11-29T01:29:00.195Z,21.23
2022-11-29T01:31:30.831Z,23.30
2022-11-29T01:34:02.334Z,24.38
2022-11-29T01:36:31.394Z,24.98
2022-11-29T01:39:00.324Z,25.35
2022-11-29T01:41:30.417Z,28.77
2022-11-29T01:44:02.503Z,27.20
2022-11-29T01:46:32.438Z,32.42
2022-11-29T01:49:05.414Z,29.77
2022-11-29T01:51:35.741Z,27.55
2022-11-29T01:54:04.429Z,26.60
2022-11-29T01:56:35.341Z,21.65
2022-11-29T01:59:06.431Z,22.10
2022-11-29T02:01:36.487Z,20.33
2022-11-29T02:04:06.996Z,20.60
2022-11-29T02:06:37.010Z,21.35
2022-11-29T02:09:05.735Z,20.27
2022-11-29T02:11:51.330Z,21.77
2022-11-29T02:14:35.401Z,20.55
2022-11-29T02:17:14.421Z,22.48
2022-11-29T02:20:06.839Z,22.63
2022-11-29T02:22:40.199Z,21.92
2022-11-29T02:25:22.573Z,21.95
2022-11-29T02:28:36.391Z,24.48
2022-11-29T02:31:31.950Z,23.45
2022-11-29T02:34:21.183Z,26.08
2022-11-29T02:37:11.292Z,24.30
2022-11-29T02:39:53.355Z,27.08
2022-11-29T02:42:56.278Z,26.30
2022-11-29T02:45:59.728Z,24.97
2022-11-29T02:48:49.702Z,24.00
2022-11-29T02:51:25.259Z,25.27
2022-11-29T02:54:00.649Z,24.35
2022-11-29T02:56:35.546Z,25.30
2022-11-29T02:59:10.672Z,23.52
2022-11-29T03:01:46.415Z,23.05
2022-11-29T03:04:19.304Z,24.77
2022-11-29T03:06:57.659Z,24.88
2022-11-29T03:09:35.170Z,24.63
2022-11-29T03:12:14.104Z,23.10
2022-11-29T03:14:53.743Z,23.35
2022-11-29T03:17:31.823Z,24.67
2022-11-29T03:20:21.168Z,24.23
2022-11-29T03:23:06.939Z,24.05
2022-11-29T03:25:42.089Z,22.80
2022-11-29T03:28:19.170Z,22.73
2022-11-29T03:30:55.305Z,23.75
2022-11-29T03:33:31.284Z,22.52
2022-11-29T03:36:05.536Z,22.75
2022-11-29T03:38:42.685Z,23.63
2022-11-29T03:41:21.072Z,24.23
2022-11-29T03:43:56.531Z,23.75
2022-11-29T03:46:33.145Z,26.08
2022-11-29T03:49:05.771Z,20.67
2022-11-29T03:51:46.309Z,24.23
2022-11-29T03:54:19.264Z,23.05
2022-11-29T03:56:48.021Z,21.52
2022-11-29T03:59:40.469Z,20.10
2022-11-29T04:02:47.828Z,21.10
2022-11-29T04:05:44.720Z,20.73
2022-11-29T04:09:00.029Z,19.10
2022-11-29T04:12:18.920Z,18.13
2022-11-29T04:15:34.482Z,20.27
2022-11-29T04:18:38.540Z,19.33
2022-11-29T04:21:44.881Z,22.33
2022-11-29T04:24:39.146Z,21.77
2022-11-29T04:29:56.702Z,20.15
2022-11-29T04:32:59.720Z,18.20
2022-11-29T04:35:39.972Z,17.40
2022-11-29T04:38:27.291Z,18.02
2022-11-29T04:41:24.208Z,18.48
2022-11-29T04:44:06.675Z,19.77
2022-11-29T04:47:13.822Z,18.52
2022-11-29T04:50:06.289Z,18.02
2022-11-29T04:52:57.889Z,17.88
2022-11-29T04:55:39.728Z,18.02
2022-11-29T04:58:17.559Z,18.27
2022-11-29T05:00:55.645Z,21.10
2022-11-29T05:03:34.991Z,21.45
2022-11-29T05:06:17.117Z,20.88
2022-11-29T05:08:56.008Z,20.77
2022-11-29T05:11:33.259Z,20.40
2022-11-29T05:14:10.570Z,28.00
2022-11-29T05:16:48.040Z,18.63
2022-11-29T05:19:47.194Z,17.48
2022-11-29T05:22:27.647Z,18.45
2022-11-29T05:25:05.775Z,17.35
2022-11-29T05:27:44.771Z,17.13
2022-11-29T05:30:15.900Z,17.95
2022-11-29T05:32:56.983Z,16.98
2022-11-29T05:35:46.490Z,17.05
2022-11-29T05:38:37.051Z,18.65
2022-11-29T05:41:22.285Z,20.90
2022-11-29T05:44:00.952Z,22.50
2022-11-29T05:46:35.131Z,22.63
2022-11-29T05:49:13.822Z,24.30
2022-11-29T05:51:46.184Z,22.63
2022-11-29T05:54:27.272Z,21.60
2022-11-29T05:57:07.526Z,20.95
2022-11-29T05:59:39.458Z,20.77
2022-11-29T06:02:20.937Z,19.98
2022-11-29T06:05:06.643Z,19.95
2022-11-29T06:07:42.862Z,19.02
2022-11-29T06:10:17.817Z,17.50
2022-11-29T06:12:57.294Z,17.95
2022-11-29T06:15:58.965Z,16.88
2022-11-29T06:18:53.085Z,16.75
2022-11-29T06:21:30.598Z,18.58
2022-11-29T06:24:25.778Z,16.17
2022-11-29T06:27:25.545Z,19.88
2022-11-29T06:29:59.245Z,17.75
2022-11-29T06:35:04.987Z,16.63
2022-11-29T06:37:37.905Z,18.20
2022-11-29T06:40:07.553Z,17.77
2022-11-29T06:42:37.335Z,18.65
2022-11-29T06:45:06.875Z,17.42
2022-11-29T06:47:43.762Z,18.40
2022-11-29T06:50:26.347Z,18.70
2022-11-29T06:53:01.021Z,19.70
2022-11-29T06:55:38.882Z,20.90
2022-11-29T06:58:20.715Z,20.33
2022-11-29T07:00:54.881Z,21.58
2022-11-29T07:03:35.955Z,22.23
2022-11-29T07:06:10.131Z,20.02
2022-11-29T07:08:39.130Z,18.75
2022-11-29T07:11:08.042Z,20.65
2022-11-29T07:13:38.111Z,18.98
2022-11-29T07:16:18.660Z,19.52
2022-11-29T07:18:55.773Z,19.52
2022-11-29T07:21:32.242Z,16.20
2022-11-29T07:24:09.800Z,18.30
2022-11-29T07:26:46.819Z,18.05
2022-11-29T07:29:25.729Z,18.63
2022-11-29T07:32:04.272Z,18.10
2022-11-29T07:34:42.202Z,17.45
2022-11-29T07:37:21.008Z,16.92
2022-11-29T07:39:59.142Z,18.45
2022-11-29T07:42:32.818Z,17.90
2022-11-29T07:47:36.133Z,18.55
2022-11-29T07:50:04.952Z,18.85
2022-11-29T07:52:33.086Z,18.83
2022-11-29T07:55:01.521Z,20.90
2022-11-29T07:57:29.830Z,19.23
2022-11-29T07:59:57.938Z,19.50
2022-11-29T08:02:31.943Z,18.60
2022-11-29T08:05:01.775Z,19.60
2022-11-29T08:07:35.305Z,18.92
2022-11-29T08:10:03.457Z,18.02
2022-11-29T08:12:31.577Z,18.52
2022-11-29T08:14:59.913Z,19.20
2022-11-29T08:17:28.102Z,21.15
2022-11-29T08:20:02.594Z,19.45
2022-11-29T08:22:32.868Z,19.92
2022-11-29T08:25:01.445Z,19.45
2022-11-29T08:27:29.657Z,20.25
2022-11-29T08:29:58.058Z,18.63
2022-11-29T08:32:27.092Z,19.70
2022-11-29T08:34:55.415Z,18.92
2022-11-29T08:37:25.189Z,18.58
2022-11-29T08:39:53.429Z,19.15
2022-11-29T08:42:21.814Z,21.25
2022-11-29T08:44:50.160Z,20.35
2022-11-29T08:47:35.724Z,20.10
2022-11-29T08:50:05.186Z,21.23
2022-11-29T08:52:54.105Z,20.50
2022-11-29T08:55:24.740Z,20.83
2022-11-29T08:57:54.142Z,19.98
2022-11-29T09:00:22.793Z,19.85
2022-11-29T09:02:51.203Z,17.67
2022-11-29T09:05:19.699Z,20.48
2022-11-29T09:07:49.362Z,19.10
2022-11-29T09:10:17.655Z,20.90
2022-11-29T09:12:46.385Z,20.35
2022-11-29T09:15:14.786Z,17.38
2022-11-29T09:17:43.148Z,17.83
2022-11-29T09:20:12.272Z,18.48
2022-11-29T09:22:40.653Z,19.17
2022-11-29T09:25:10.771Z,17.23
2022-11-29T09:27:39.182Z,16.45
2022-11-29T09:30:09.341Z,16.42
2022-11-29T09:32:38.203Z,22.42
2022-11-29T09:35:07.207Z,21.55
2022-11-29T09:37:36.964Z,18.63
2022-11-29T09:40:06.022Z,19.17
2022-11-29T09:42:46.670Z,20.05
2022-11-29T09:45:20.744Z,19.85
2022-11-29T09:48:05.254Z,15.25
2022-11-29T09:50:35.140Z,15.07
2022-11-29T09:53:19.232Z,12.50
2022-11-29T09:56:05.714Z,15.98
2022-11-29T09:58:43.805Z,13.50
2022-11-29T10:01:16.196Z,16.17
2022-11-29T10:03:48.367Z,15.07
2022-11-29T10:06:24.533Z,13.05
2022-11-29T10:08:59.096Z,11.63
2022-11-29T10:11:31.605Z,13.15
2022-11-29T10:14:08.284Z,12.13
2022-11-29T10:16:44.164Z,12.50
2022-11-29T10:19:20.845Z,12.07
2022-11-29T10:21:59.252Z,12.63
2022-11-29T10:24:29.578Z,12.57
2022-11-29T10:26:58.052Z,10.93
2022-11-29T10:29:28.349Z,10.68
2022-11-29T10:31:59.321Z,12.27
2022-11-29T10:34:32.082Z,11.75
2022-11-29T10:37:02.636Z,10.83
2022-11-29T10:39:37.303Z,10.98
2022-11-29T10:42:27.596Z,10.82
2022-11-29T10:44:58.516Z,10.65
2022-11-29T10:47:26.809Z,9.98
2022-11-29T10:49:55.625Z,9.70
2022-11-29T10:52:25.036Z,11.07
2022-11-29T10:54:57.842Z,9.40
2022-11-29T10:57:26.277Z,11.37
2022-11-29T11:00:09.177Z,12.20
2022-11-29T11:02:38.353Z,12.23
2022-11-29T11:05:18.612Z,11.20
2022-11-29T11:07:47.622Z,11.82
2022-11-29T11:10:23.600Z,11.27
2022-11-29T11:13:03.648Z,9.88
2022-11-29T11:15:34.006Z,11.35
2022-11-29T11:18:05.332Z,12.05
2022-11-29T11:20:35.810Z,11.15
2022-11-29T11:23:06.605Z,12.27
2022-11-29T11:25:38.349Z,11.43
2022-11-29T11:28:18.385Z,11.27
2022-11-29T11:30:54.939Z,11.25
2022-11-29T11:33:26.922Z,10.63
2022-11-29T11:36:12.317Z,11.43
2022-11-29T11:38:42.341Z,11.57
2022-11-29T11:41:48.676Z,10.73
2022-11-29T11:44:46.988Z,12.18
2022-11-29T11:47:20.434Z,13.00
2022-11-29T11:49:50.764Z,12.95
2022-11-29T11:52:23.179Z,13.05
2022-11-29T11:54:55.825Z,13.07
2022-11-29T11:57:26.194Z,12.02
2022-11-29T11:59:59.592Z,14.45
2022-11-29T12:02:40.388Z,13.55
2022-11-29T12:05:17.090Z,14.30
2022-11-29T12:08:08.179Z,12.55
2022-11-29T12:10:41.112Z,11.45
2022-11-29T12:13:16.886Z,12.35
2022-11-29T12:15:47.748Z,9.90
2022-11-29T12:18:25.896Z,11.70
2022-11-29T12:20:58.321Z,11.57
2022-11-29T12:23:36.027Z,12.60
2022-11-29T12:26:13.673Z,12.85
2022-11-29T12:28:48.075Z,14.30
2022-11-29T12:31:29.708Z,11.20
2022-11-29T12:34:11.282Z,11.85
2022-11-29T12:36:44.500Z,13.32
2022-11-29T12:39:32.162Z,12.65
2022-11-29T12:42:10.797Z,11.88
2022-11-29T12:44:52.149Z,11.07
2022-11-29T12:47:37.924Z,12.30
2022-11-29T12:50:21.030Z,15.45
2022-11-29T12:53:03.332Z,12.50
2022-11-29T12:55:40.216Z,14.98
2022-11-29T12:58:15.531Z,15.35
2022-11-29T13:00:54.669Z,11.75
2022-11-29T13:03:29.004Z,16.77
2022-11-29T13:06:12.496Z,13.43
2022-11-29T13:08:57.589Z,13.35
2022-11-29T13:11:28.829Z,12.98
2022-11-29T13:14:34.604Z,13.77
2022-11-29T13:16:58.968Z,15.57
2022-11-29T13:19:37.164Z,14.35
2022-11-29T13:22:17.386Z,13.00
2022-11-29T13:24:50.051Z,12.10
2022-11-29T13:27:22.229Z,12.83
2022-11-29T13:29:50.804Z,13.45
2022-11-29T13:32:32.331Z,13.80
2022-11-29T13:35:04.766Z,12.63
2022-11-29T13:37:39.745Z,14.55
2022-11-29T13:40:23.052Z,14.40
2022-11-29T13:42:59.219Z,14.13
2022-11-29T13:45:33.137Z,13.32
2022-11-29T13:48:02.780Z,13.88
2022-11-29T13:50:40.408Z,12.70
2022-11-29T13:53:17.037Z,12.85
2022-11-29T13:55:50.237Z,14.82
2022-11-29T13:58:35.440Z,16.83
2022-11-29T14:01:07.710Z,15.27
2022-11-29T14:03:39.646Z,15.38
2022-11-29T14:06:18.799Z,14.40
2022-11-29T14:09:22.728Z,13.60
2022-11-29T14:11:58.970Z,13.73
2022-11-29T14:14:31.323Z,12.50
2022-11-29T14:17:02.368Z,14.05
2022-11-29T14:19:34.052Z,12.98
2022-11-29T14:22:22.738Z,14.05
2022-11-29T14:25:16.398Z,12.23
2022-11-29T14:27:58.062Z,12.60
2022-11-29T14:30:46.080Z,13.05
2022-11-29T14:33:35.239Z,11.82
2022-11-29T14:36:22.605Z,13.13
2022-11-29T14:38:58.937Z,12.48
2022-11-29T14:41:34.953Z,13.20
2022-11-29T14:44:19.007Z,13.68
2022-11-29T14:46:48.899Z,14.07
2022-11-29T14:49:24.972Z,14.10
2022-11-29T14:52:11.061Z,13.32
2022-11-29T14:54:57.378Z,14.05
2022-11-29T14:58:07.069Z,13.20
2022-11-29T15:00:44.681Z,12.55
2022-11-29T15:03:18.476Z,14.98
2022-11-29T15:05:50.346Z,15.73
2022-11-29T15:08:26.370Z,15.80
2022-11-29T15:11:00.001Z,19.98
2022-11-29T15:16:22.561Z,21.75
2022-11-29T15:19:13.914Z,20.35
2022-11-29T15:21:52.675Z,17.70
2022-11-29T15:24:26.817Z,16.95
2022-11-29T15:26:58.421Z,17.95
2022-11-29T15:29:29.168Z,15.95
2022-11-29T15:31:59.907Z,18.65
2022-11-29T15:34:32.917Z,23.92
2022-11-29T15:37:02.202Z,19.45
2022-11-29T15:39:34.272Z,21.25
2022-11-29T15:42:04.812Z,18.30
2022-11-29T15:44:35.032Z,14.73
2022-11-29T15:47:23.396Z,18.67
2022-11-29T15:49:52.214Z,16.63
2022-11-29T15:52:27.143Z,18.67
2022-11-29T15:55:00.563Z,16.48
2022-11-29T15:57:34.942Z,18.33
2022-11-29T16:00:09.920Z,18.15
2022-11-29T16:02:45.312Z,21.23
2022-11-29T16:05:21.385Z,13.98
2022-11-29T16:07:53.836Z,16.75
2022-11-29T16:10:24.945Z,14.10
2022-11-29T16:12:57.994Z,14.07
2022-11-29T16:15:31.083Z,11.82
2022-11-29T16:18:05.327Z,13.57
2022-11-29T16:20:34.035Z,11.90
2022-11-29T16:23:13.918Z,16.48
2022-11-29T16:25:59.387Z,11.60
2022-11-29T16:28:32.703Z,10.52
2022-11-29T16:31:02.667Z,12.82
2022-11-29T16:33:30.840Z,10.68
2022-11-29T16:36:07.431Z,15.50
2022-11-29T16:38:35.631Z,17.23
2022-11-29T16:41:06.440Z,12.10
2022-11-29T16:43:53.511Z,14.18
2022-11-29T16:46:35.222Z,12.38
2022-11-29T16:49:25.085Z,12.68
2022-11-29T16:51:55.003Z,10.50
2022-11-29T16:54:25.843Z,11.27
2022-11-29T16:56:56.641Z,12.57
2022-11-29T16:59:28.392Z,10.75
2022-11-29T17:01:58.309Z,11.88
2022-11-29T17:04:26.569Z,10.07
2022-11-29T17:06:56.112Z,11.02
2022-11-29T17:09:26.836Z,11.02
2022-11-29T17:11:55.360Z,11.98
2022-11-29T17:14:24.122Z,11.75
2022-11-29T17:16:52.660Z,12.35
2022-11-29T17:19:23.924Z,12.82
2022-11-29T17:21:52.806Z,11.45
2022-11-29T17:24:23.494Z,10.95
2022-11-29T17:26:51.988Z,11.20
2022-11-29T17:29:20.345Z,13.55
2022-11-29T17:31:50.486Z,12.63
2022-11-29T17:34:19.087Z,11.95
2022-11-29T17:36:49.826Z,12.23
2022-11-29T17:39:20.208Z,13.70
2022-11-29T17:41:48.735Z,12.95
2022-11-29T17:44:17.142Z,13.55
2022-11-29T17:46:45.376Z,15.07
2022-11-29T17:49:13.472Z,13.07
2022-11-29T17:51:57.694Z,14.27
2022-11-29T17:54:27.175Z,14.82
2022-11-29T17:56:56.615Z,15.15
2022-11-29T17:59:24.835Z,14.95
2022-11-29T18:01:53.329Z,13.05
2022-11-29T18:04:21.660Z,14.07
2022-11-29T18:06:50.778Z,13.77
2022-11-29T18:09:19.803Z,16.38
2022-11-29T18:11:50.939Z,13.27
2022-11-29T18:14:21.327Z,14.50
2022-11-29T18:16:50.221Z,16.42
2022-11-29T18:19:20.123Z,13.82
2022-11-29T18:21:49.042Z,14.23
2022-11-29T18:24:17.916Z,13.93
2022-11-29T18:26:46.321Z,13.90
2022-11-29T18:29:16.185Z,14.43
2022-11-29T18:31:46.398Z,14.68
2022-11-29T18:34:16.496Z,14.60
2022-11-29T18:36:46.366Z,15.82
2022-11-29T18:39:17.139Z,18.60
2022-11-29T18:41:47.506Z,16.52
2022-11-29T18:44:19.171Z,15.75
2022-11-29T18:46:47.786Z,15.45
2022-11-29T18:49:17.819Z,18.02
2022-11-29T18:51:47.579Z,20.35
2022-11-29T18:54:16.868Z,14.45
2022-11-29T18:56:46.643Z,13.82
2022-11-29T18:59:18.173Z,14.88
2022-11-29T19:01:48.546Z,15.15
2022-11-29T19:04:18.958Z,20.58
2022-11-29T19:06:48.239Z,14.85
2022-11-29T19:09:18.312Z,16.55
2022-11-29T19:11:46.683Z,13.70
2022-11-29T19:14:14.850Z,13.27
2022-11-29T19:16:45.924Z,14.05
2022-11-29T19:19:14.729Z,13.55
2022-11-29T19:21:43.217Z,19.08
2022-11-29T19:24:18.162Z,22.85
2022-11-29T19:26:48.404Z,18.50
2022-11-29T19:29:17.243Z,14.57
2022-11-29T19:31:47.285Z,14.05
2022-11-29T19:34:15.502Z,20.00
2022-11-29T19:36:44.973Z,14.77
2022-11-29T19:39:15.776Z,11.63
2022-11-29T19:41:45.628Z,13.85
2022-11-29T19:44:14.255Z,12.88
2022-11-29T19:46:44.394Z,13.02
2022-11-29T19:49:14.052Z,14.20
2022-11-29T19:51:42.910Z,12.23
2022-11-29T19:54:12.151Z,13.57
2022-11-29T19:56:40.731Z,13.45
2022-11-29T19:59:09.452Z,15.07
2022-11-29T20:01:41.522Z,14.68
2022-11-29T20:04:13.797Z,14.27
2022-11-29T20:06:43.070Z,14.98
2022-11-29T20:09:11.895Z,13.77
2022-11-29T20:11:40.065Z,15.70
2022-11-29T20:14:09.372Z,14.30
2022-11-29T20:16:39.214Z,15.48
2022-11-29T20:19:11.034Z,16.67
2022-11-29T20:21:43.739Z,23.58
2022-11-29T20:24:14.079Z,17.63
2022-11-29T20:26:44.636Z,17.58
2022-11-29T20:29:13.910Z,19.30
2022-11-29T20:31:49.583Z,16.50
2022-11-29T20:34:19.132Z,16.80
2022-11-29T20:37:13.798Z,17.35
2022-11-29T20:39:49.956Z,18.75
2022-11-29T20:42:45.144Z,21.33
2022-11-29T20:45:15.830Z,15.05
2022-11-29T20:47:51.987Z,17.67
2022-11-29T20:50:24.003Z,15.63
2022-11-29T20:53:05.196Z,16.45
2022-11-29T20:55:33.373Z,16.80
2022-11-29T20:58:01.657Z,13.60
2022-11-29T21:00:29.916Z,14.32
2022-11-29T21:02:58.192Z,16.38
2022-11-29T21:05:26.679Z,15.07
2022-11-29T21:07:56.428Z,13.90
2022-11-29T21:10:24.798Z,15.75
2022-11-29T21:12:53.340Z,17.10
2022-11-29T21:15:22.623Z,21.15
2022-11-29T21:17:51.322Z,23.95
2022-11-29T21:20:22.709Z,13.88
2022-11-29T21:23:00.876Z,15.13
2022-11-29T21:25:42.496Z,16.20
2022-11-29T21:28:13.775Z,14.57
2022-11-29T21:30:42.909Z,13.65
2022-11-29T21:33:12.561Z,13.20
2022-11-29T21:35:41.441Z,13.93
2022-11-29T21:38:18.965Z,20.63
2022-11-29T21:40:47.365Z,22.88
2022-11-29T21:43:15.696Z,13.90
2022-11-29T21:45:43.932Z,12.93
2022-11-29T21:48:26.036Z,15.38
2022-11-29T21:50:54.192Z,13.35
2022-11-29T21:53:24.052Z,13.23
2022-11-29T21:55:58.143Z,14.32
2022-11-29T21:58:26.656Z,11.82
2022-11-29T22:00:54.832Z,14.13
2022-11-29T22:03:23.553Z,12.48
2022-11-29T22:05:51.736Z,12.57
2022-11-29T22:08:19.864Z,11.73
2022-11-29T22:10:49.583Z,12.68
2022-11-29T22:13:17.744Z,13.93
2022-11-29T22:15:45.928Z,14.18
2022-11-29T22:18:14.434Z,12.95
2022-11-29T22:20:42.743Z,13.60
2022-11-29T22:23:10.847Z,14.25
2022-11-29T22:25:39.354Z,15.25
2022-11-29T22:28:08.809Z,15.65
2022-11-29T22:30:36.957Z,14.40
2022-11-29T22:33:10.256Z,14.30
2022-11-29T22:35:44.288Z,14.95
2022-11-29T22:38:12.841Z,15.43
2022-11-29T22:40:41.047Z,13.55
2022-11-29T22:43:10.478Z,14.95
2022-11-29T22:45:38.876Z,15.18
2022-11-29T22:48:07.120Z,14.48
2022-11-29T22:50:35.218Z,13.93
2022-11-29T22:53:03.740Z,15.10
2022-11-29T22:55:31.841Z,14.27
2022-11-29T22:58:00.025Z,14.05
2022-11-29T23:00:29.930Z,15.88
2022-11-29T23:02:58.636Z,15.55
2022-11-29T23:05:31.915Z,17.45
2022-11-29T23:10:29.303Z,15.88
2022-11-29T23:12:57.483Z,15.48
2022-11-29T23:15:25.999Z,16.63
2022-11-29T23:17:55.843Z,14.95
2022-11-29T23:20:26.107Z,16.08
2022-11-29T23:22:55.745Z,15.93
2022-11-29T23:25:23.820Z,18.17
2022-11-29T23:27:54.265Z,16.85
2022-11-29T23:30:22.469Z,17.17
2022-11-29T23:32:50.612Z,17.23
2022-11-29T23:35:20.521Z,17.05
2022-11-29T23:37:49.036Z,16.42
2022-11-29T23:40:17.222Z,17.30
2022-11-29T23:42:47.381Z,16.13
2022-11-29T23:45:15.985Z,17.73
2022-11-29T23:47:44.145Z,16.48
2022-11-29T23:50:12.989Z,16.20
2022-11-29T23:52:43.017Z,16.98
2022-11-29T23:55:14.741Z,17.85
2022-11-29T23:57:45.183Z,18.20
